UAL347 KTPA-KATL
Flight info
| Callsign | UAL347 |
|---|---|
| Flight time | N/A |
| Altitude | 37000 |
| Route | BAYPO2 CAMJO LAIRI/N0453F360 LARZZ JJEDI4 |
| Aircraft | B739/M-SDE2E3FGHIRWXY/LB1 |
Departure
| Time | 2026-05-07 23:21 |
|---|---|
| Airport | Tampa International Airport (KTPA) |
Arrival
| Time | N/A |
|---|---|
| Airport | Hartsfield Jackson Atlanta International Airport (KATL) |
| Time | Latitude | Longitude | Altitude | Speed | Heading |
|---|---|---|---|---|---|
| 2026-05-07 23:02 | 27.97450 | -82.53244 | 42 ft | 0 kts | 20° |
| 2026-05-07 23:07 | 27.97449 | -82.53244 | 42 ft | 0 kts | 20° |
| 2026-05-07 23:08 | 27.97445 | -82.53246 | 42 ft | 3 kts | 20° |
| 2026-05-07 23:08 | 27.97428 | -82.53253 | 42 ft | 3 kts | 20° |
| 2026-05-07 23:08 | 27.97411 | -82.53260 | 40 ft | 3 kts | 20° |
| 2026-05-07 23:09 | 27.97394 | -82.53268 | 41 ft | 3 kts | 20° |
| 2026-05-07 23:09 | 27.97377 | -82.53275 | 39 ft | 3 kts | 20° |
| 2026-05-07 23:09 | 27.97375 | -82.53276 | 40 ft | 0 kts | 20° |
| 2026-05-07 23:13 | 27.97393 | -82.53299 | 41 ft | 5 kts | 261° |
| 2026-05-07 23:13 | 27.97362 | -82.53316 | 42 ft | 5 kts | 192° |
| 2026-05-07 23:13 | 27.97331 | -82.53334 | 42 ft | 5 kts | 227° |
| 2026-05-07 23:14 | 27.97315 | -82.53371 | 43 ft | 5 kts | 262° |
| 2026-05-07 23:14 | 27.97315 | -82.53399 | 43 ft | 5 kts | 271° |
| 2026-05-07 23:14 | 27.97316 | -82.53441 | 45 ft | 5 kts | 271° |
| 2026-05-07 23:14 | 27.97318 | -82.53494 | 47 ft | 13 kts | 275° |
| 2026-05-07 23:15 | 27.97357 | -82.53650 | 53 ft | 15 kts | 301° |
| 2026-05-07 23:15 | 27.97394 | -82.53719 | 51 ft | 16 kts | 301° |
| 2026-05-07 23:15 | 27.97459 | -82.53831 | 45 ft | 17 kts | 303° |
| 2026-05-07 23:15 | 27.97526 | -82.53947 | 45 ft | 17 kts | 305° |
| 2026-05-07 23:16 | 27.97633 | -82.53983 | 45 ft | 17 kts | 0° |
| 2026-05-07 23:16 | 27.97748 | -82.53980 | 45 ft | 16 kts | 1° |
| 2026-05-07 23:16 | 27.97859 | -82.53978 | 45 ft | 16 kts | 1° |
| 2026-05-07 23:16 | 27.97966 | -82.53976 | 45 ft | 15 kts | 1° |
| 2026-05-07 23:17 | 27.98068 | -82.53973 | 46 ft | 14 kts | 2° |
| 2026-05-07 23:17 | 27.98165 | -82.53969 | 46 ft | 14 kts | 2° |
| 2026-05-07 23:17 | 27.98259 | -82.53966 | 46 ft | 13 kts | 1° |
| 2026-05-07 23:17 | 27.98349 | -82.53964 | 47 ft | 13 kts | 1° |
| 2026-05-07 23:18 | 27.98436 | -82.53962 | 47 ft | 12 kts | 0° |
| 2026-05-07 23:18 | 27.98522 | -82.53962 | 47 ft | 12 kts | 360° |
| 2026-05-07 23:18 | 27.98605 | -82.53963 | 46 ft | 12 kts | 359° |
| 2026-05-07 23:18 | 27.98686 | -82.53964 | 46 ft | 11 kts | 359° |
| 2026-05-07 23:19 | 27.98765 | -82.53965 | 46 ft | 11 kts | 2° |
| 2026-05-07 23:19 | 27.98841 | -82.53954 | 46 ft | 11 kts | 7° |
| 2026-05-07 23:19 | 27.98915 | -82.53947 | 46 ft | 11 kts | 3° |
| 2026-05-07 23:19 | 27.98987 | -82.53943 | 46 ft | 10 kts | 2° |
| 2026-05-07 23:20 | 27.99066 | -82.53940 | 45 ft | 14 kts | 2° |
| 2026-05-07 23:20 | 27.99183 | -82.53936 | 45 ft | 20 kts | 1° |
| 2026-05-07 23:20 | 27.99299 | -82.54002 | 45 ft | 20 kts | 285° |
| 2026-05-07 23:20 | 27.99237 | -82.54124 | 46 ft | 19 kts | 198° |
| 2026-05-07 23:21 | 27.99065 | -82.54139 | 47 ft | 52 kts | 182° |
| 2026-05-07 23:21 | 27.98393 | -82.54167 | 50 ft | 138 kts | 181° |
| 2026-05-07 23:21 | 27.97231 | -82.54182 | 251 ft | 186 kts | 187° |
| 2026-05-07 23:21 | 27.95892 | -82.54281 | 1047 ft | 194 kts | 185° |
| 2026-05-07 23:22 | 27.94566 | -82.54508 | 2104 ft | 190 kts | 205° |
| 2026-05-07 23:22 | 27.93611 | -82.55529 | 2713 ft | 195 kts | 250° |
| 2026-05-07 23:22 | 27.93598 | -82.57050 | 3185 ft | 202 kts | 296° |
| 2026-05-07 23:22 | 27.94588 | -82.58216 | 3473 ft | 223 kts | 334° |
| 2026-05-07 23:23 | 27.96165 | -82.58561 | 3908 ft | 237 kts | 351° |
| 2026-05-07 23:23 | 27.97834 | -82.58617 | 4525 ft | 247 kts | 1° |
| 2026-05-07 23:23 | 27.99612 | -82.58494 | 4877 ft | 269 kts | 2° |
| 2026-05-07 23:23 | 28.01494 | -82.58350 | 5763 ft | 271 kts | 1° |
| 2026-05-07 23:24 | 28.03386 | -82.58225 | 6577 ft | 278 kts | 1° |
| 2026-05-07 23:24 | 28.05348 | -82.58121 | 7335 ft | 283 kts | 360° |
| 2026-05-07 23:24 | 28.07326 | -82.58033 | 8139 ft | 287 kts | 360° |
| 2026-05-07 23:24 | 28.07836 | -82.58012 | 8347 ft | 289 kts | 359° |
| 2026-05-07 23:25 | 28.09280 | -82.57955 | 8907 ft | 292 kts | 359° |
| 2026-05-07 23:25 | 28.11336 | -82.57879 | 9703 ft | 297 kts | 358° |
| 2026-05-07 23:26 | 28.13320 | -82.57811 | 10373 ft | 304 kts | 358° |
| 2026-05-07 23:26 | 28.15503 | -82.57741 | 10596 ft | 328 kts | 358° |
| 2026-05-07 23:26 | 28.17861 | -82.57666 | 10823 ft | 349 kts | 358° |
| 2026-05-07 23:26 | 28.20325 | -82.57592 | 11315 ft | 358 kts | 357° |
| 2026-05-07 23:27 | 28.23400 | -82.57642 | 12145 ft | 361 kts | 354° |
| 2026-05-07 23:28 | 28.23869 | -82.57658 | 12259 ft | 362 kts | 354° |
| 2026-05-07 23:28 | 28.26405 | -82.57756 | 12931 ft | 365 kts | 354° |